Terminal Aerodrome Forecast
Issued by NWS

Home | Current Version | Previous Version | Text Only | Print | Product List | Glossary On
Versions: 1 2 3 4 5 6 7 8 9 10 11 12 13
881
FTUS46 KPDT 031120
TAFYKM
TAF
KYKM 031120Z 0312/0412 26006KT P6SM FEW120 SCT250
     FM031500 VRB04KT P6SM SCT120 BKN200
     FM032000 15005KT P6SM BKN100 BKN200
     FM040300 30007KT P6SM VCSH OVC080=

USA.gov is the U.S. government's official web portal to all federal, state and local government web resources and services.